Orland, Indiana
Current Conditions -  °F | °C
As of 5:35 PM on Saturday 25 Oct 2014 (Local Time) from KANQ Reporting Station
Clear Clear  
Wind Chill: 66°   Ceiling: Unl
Heat Index: 66°   Visibility: 10mi
Dew Point: 57°   Wind: 15mph
Humidity: 73%   Direction: 290°WNW
Pressure: 29.85"   Gusts: NA
Location:  41.73°N, 85.17°W
Report Text: KANQ 252135Z AUTO 29013KT 10SM CLR 19/14 A2985 RMK
Loading
Personal Weather Stations






























Interactive Weather Map
Tropical Storm Tracking
New forecast layout! Learn more

10-Day Weather Forecast

Advertisements
Track Severe Weather on mobile